Time;durP1;ratioP1;P1;durP2;ratioP2;P2;SDS_P1;SDS_P2;PMS_P1;PMS_P2;Temp;Humidity;BMP_temperature;BMP_pressure;BME280_temperature;BME280_humidity;BME280_pressure;Samples;Min_cycle;Max_cycle;Signal;HPM_P1;HPM_P2
2024/02/22 00:01:20;;;;;;;39.07;36.50;;;;;;;;;;4982707;28;20948;-79
2024/02/22 00:03:47;;;;;;;35.33;33.43;;;;;;;;;;4983465;28;20549;-79
2024/02/22 00:06:14;;;;;;;36.93;34.83;;;;;;;;;;4982563;28;20454;-80
2024/02/22 00:08:42;;;;;;;39.57;37.43;;;;;;;;;;4982893;28;21026;-80
2024/02/22 00:11:13;;;;;;;39.67;37.53;;;;;;;;;;4983633;28;20450;-80
2024/02/22 00:13:41;;;;;;;40.53;38.23;;;;;;;;;;5002399;28;20446;-80
2024/02/22 00:16:08;;;;;;;39.50;37.17;;;;;;;;;;4985649;28;20466;-81
2024/02/22 00:18:35;;;;;;;40.93;38.63;;;;;;;;;;4981966;28;20457;-80
2024/02/22 00:21:02;;;;;;;39.00;37.00;;;;;;;;;;4987504;28;20493;-80
2024/02/22 00:23:29;;;;;;;40.47;38.37;;;;;;;;;;5002345;28;20839;-80
2024/02/22 00:25:56;;;;;;;41.97;39.77;;;;;;;;;;4989433;28;20432;-80
2024/02/22 00:28:24;;;;;;;42.50;40.30;;;;;;;;;;4987296;28;20477;-80
2024/02/22 00:30:51;;;;;;;41.97;39.87;;;;;;;;;;4983899;28;20992;-80
2024/02/22 00:33:20;;;;;;;41.20;39.10;;;;;;;;;;4983226;28;20446;-81
2024/02/22 00:35:47;;;;;;;41.67;39.10;;;;;;;;;;4982848;28;20458;-81
2024/02/22 00:38:14;;;;;;;40.07;37.80;;;;;;;;;;4982120;28;20483;-80
2024/02/22 00:40:41;;;;;;;44.40;42.10;;;;;;;;;;4982586;28;20490;-80
2024/02/22 00:43:08;;;;;;;41.53;39.30;;;;;;;;;;4990186;28;20497;-80
2024/02/22 00:45:36;;;;;;;41.93;39.73;;;;;;;;;;5002519;28;20461;-80
2024/02/22 00:48:03;;;;;;;43.47;41.20;;;;;;;;;;5001989;28;20481;-80
2024/02/22 00:50:30;;;;;;;41.90;39.90;;;;;;;;;;5001596;28;20531;-80
2024/02/22 00:52:57;;;;;;;43.93;41.70;;;;;;;;;;5002079;28;20445;-80
2024/02/22 00:55:24;;;;;;;42.07;40.00;;;;;;;;;;5001695;28;20432;-80
2024/02/22 00:57:51;;;;;;;50.60;48.13;;;;;;;;;;4997335;28;20452;-80
2024/02/22 01:00:19;;;;;;;40.57;38.40;;;;;;;;;;4982397;28;20450;-80
2024/02/22 01:02:47;;;;;;;38.60;36.60;;;;;;;;;;4982191;28;20913;-81
2024/02/22 01:05:14;;;;;;;49.40;46.80;;;;;;;;;;4981886;28;20754;-80
2024/02/22 01:07:41;;;;;;;39.43;37.37;;;;;;;;;;4981899;28;21159;-80
2024/02/22 01:10:09;;;;;;;41.03;38.93;;;;;;;;;;4981055;28;20417;-80
2024/02/22 01:12:36;;;;;;;42.57;40.27;;;;;;;;;;5001468;28;20521;-79
2024/02/22 01:15:03;;;;;;;48.50;46.10;;;;;;;;;;4984634;28;20473;-80
2024/02/22 01:17:30;;;;;;;48.10;45.50;;;;;;;;;;4988713;28;20433;-81
2024/02/22 01:19:58;;;;;;;49.83;47.33;;;;;;;;;;4992714;28;20458;-80
2024/02/22 01:22:25;;;;;;;50.43;47.93;;;;;;;;;;4995796;28;21072;-80
2024/02/22 01:24:52;;;;;;;54.60;51.90;;;;;;;;;;4998623;28;20519;-81
2024/02/22 01:27:19;;;;;;;56.70;53.57;;;;;;;;;;4986715;28;20527;-80
2024/02/22 01:29:46;;;;;;;43.27;41.13;;;;;;;;;;4992574;28;20501;-80
2024/02/22 01:32:13;;;;;;;50.60;48.00;;;;;;;;;;4993971;28;20449;-80
2024/02/22 01:34:40;;;;;;;52.10;49.30;;;;;;;;;;5001670;28;20942;-81
2024/02/22 01:37:09;;;;;;;51.60;49.10;;;;;;;;;;4997106;28;20462;-81
2024/02/22 01:39:36;;;;;;;52.07;49.57;;;;;;;;;;4985219;28;20555;-80
2024/02/22 01:42:03;;;;;;;51.10;48.50;;;;;;;;;;4992698;28;20489;-81
2024/02/22 01:44:30;;;;;;;48.73;46.30;;;;;;;;;;4992422;28;20449;-80
2024/02/22 01:46:57;;;;;;;51.73;49.13;;;;;;;;;;4983034;28;20485;-81
2024/02/22 01:49:25;;;;;;;50.33;47.83;;;;;;;;;;4982742;28;20433;-80
2024/02/22 01:51:52;;;;;;;49.17;46.70;;;;;;;;;;4982279;28;20446;-79
2024/02/22 01:54:20;;;;;;;46.77;44.47;;;;;;;;;;4982167;28;20450;-81
2024/02/22 01:56:47;;;;;;;49.67;47.07;;;;;;;;;;4981275;28;20846;-80
2024/02/22 01:59:15;;;;;;;48.90;46.50;;;;;;;;;;4981564;28;20536;-81
2024/02/22 02:01:42;;;;;;;56.87;54.17;;;;;;;;;;4981856;28;20830;-80
2024/02/22 02:04:10;;;;;;;55.80;52.90;;;;;;;;;;4991251;28;20565;-80
2024/02/22 02:06:37;;;;;;;57.50;54.70;;;;;;;;;;4981401;28;20446;-81
2024/02/22 02:09:04;;;;;;;53.47;50.77;;;;;;;;;;4992114;28;20543;-81
2024/02/22 02:11:32;;;;;;;49.77;47.27;;;;;;;;;;4987238;28;20517;-80
2024/02/22 02:13:59;;;;;;;46.10;43.80;;;;;;;;;;4982720;28;20454;-81
2024/02/22 02:16:27;;;;;;;45.93;43.70;;;;;;;;;;4989523;28;20443;-80
2024/02/22 02:18:54;;;;;;;46.83;44.53;;;;;;;;;;4986258;28;20487;-80
2024/02/22 02:21:32;;;;;;;49.80;47.30;;;;;;;;;;5001239;28;20453;-81
2024/02/22 02:24:07;;;;;;;47.03;44.73;;;;;;;;;;5001630;28;20491;-81
2024/02/22 02:26:35;;;;;;;51.13;48.33;;;;;;;;;;4998229;28;21063;-81
2024/02/22 02:29:02;;;;;;;52.93;50.33;;;;;;;;;;4991792;28;20513;-80
2024/02/22 02:31:30;;;;;;;55.97;53.13;;;;;;;;;;4981735;28;20454;-81
2024/02/22 02:33:56;;;;;;;52.23;49.63;;;;;;;;;;4982581;28;20516;-81
2024/02/22 02:36:23;;;;;;;54.50;51.80;;;;;;;;;;4981755;28;20462;-80
2024/02/22 02:38:50;;;;;;;59.13;56.13;;;;;;;;;;4981650;28;20544;-80
2024/02/22 02:41:17;;;;;;;53.70;51.00;;;;;;;;;;4982416;28;20454;-81
2024/02/22 02:43:46;;;;;;;56.00;53.23;;;;;;;;;;4982256;28;20548;-81
2024/02/22 02:46:13;;;;;;;54.67;51.97;;;;;;;;;;4986973;28;20454;-80
2024/02/22 02:48:40;;;;;;;56.93;53.93;;;;;;;;;;4986675;28;20530;-81
2024/02/22 02:51:07;;;;;;;57.37;54.43;;;;;;;;;;4996912;28;20516;-81
2024/02/22 02:53:34;;;;;;;49.97;47.17;;;;;;;;;;4994388;28;20968;-80
2024/02/22 02:56:01;;;;;;;51.73;49.03;;;;;;;;;;4989722;28;20479;-81
2024/02/22 02:58:28;;;;;;;54.10;51.40;;;;;;;;;;4991295;28;20474;-80
2024/02/22 03:00:56;;;;;;;52.50;49.90;;;;;;;;;;4991571;28;20458;-80
2024/02/22 03:03:23;;;;;;;52.90;50.30;;;;;;;;;;4991112;28;20485;-80
2024/02/22 03:05:50;;;;;;;50.33;47.73;;;;;;;;;;4992277;28;20458;-80
2024/02/22 03:08:18;;;;;;;52.27;49.57;;;;;;;;;;4992848;28;20488;-81
2024/02/22 03:10:45;;;;;;;52.10;49.40;;;;;;;;;;4997378;28;20453;-81
2024/02/22 03:13:11;;;;;;;54.03;51.33;;;;;;;;;;4988969;28;20503;-79
2024/02/22 03:15:39;;;;;;;50.97;48.37;;;;;;;;;;4994287;28;21029;-80
2024/02/22 03:18:07;;;;;;;53.20;50.60;;;;;;;;;;5000147;28;20448;-81
2024/02/22 03:20:35;;;;;;;54.80;52.00;;;;;;;;;;4985766;28;20457;-80
2024/02/22 03:23:02;;;;;;;55.23;52.43;;;;;;;;;;4989762;28;21004;-80
2024/02/22 03:25:29;;;;;;;53.80;51.17;;;;;;;;;;4992465;28;20455;-81
2024/02/22 03:27:58;;;;;;;54.43;51.73;;;;;;;;;;4987550;28;20475;-80
2024/02/22 03:30:25;;;;;;;53.87;51.17;;;;;;;;;;4987431;28;20457;-81
2024/02/22 03:32:52;;;;;;;52.90;49.70;;;;;;;;;;4986255;28;20484;-80
2024/02/22 03:35:22;;;;;;;53.93;51.23;;;;;;;;;;4990358;28;20429;-80
2024/02/22 03:37:49;;;;;;;57.13;54.33;;;;;;;;;;4990629;28;20473;-80
2024/02/22 03:40:16;;;;;;;57.53;54.70;;;;;;;;;;4989762;28;21089;-81
2024/02/22 03:42:44;;;;;;;56.63;53.73;;;;;;;;;;4991905;28;20538;-80
2024/02/22 03:45:11;;;;;;;54.90;52.10;;;;;;;;;;4990872;28;20432;-80
2024/02/22 03:47:38;;;;;;;52.73;50.00;;;;;;;;;;4982767;28;20454;-80
2024/02/22 03:50:05;;;;;;;51.13;48.53;;;;;;;;;;4983772;28;21013;-81
2024/02/22 03:52:34;;;;;;;52.40;49.70;;;;;;;;;;4983531;28;20447;-79
2024/02/22 03:55:02;;;;;;;52.37;49.53;;;;;;;;;;4983136;28;20935;-80
2024/02/22 03:57:29;;;;;;;57.10;54.30;;;;;;;;;;4982334;28;20466;-80
2024/02/22 03:59:56;;;;;;;54.80;52.10;;;;;;;;;;4982531;28;20482;-80
2024/02/22 04:02:23;;;;;;;57.50;54.57;;;;;;;;;;4984416;28;20494;-79
2024/02/22 04:04:50;;;;;;;56.40;53.60;;;;;;;;;;5000591;28;20441;-80
2024/02/22 04:07:17;;;;;;;59.37;56.37;;;;;;;;;;4988196;28;20431;-80
2024/02/22 04:09:45;;;;;;;59.83;56.83;;;;;;;;;;4989085;28;20541;-80
2024/02/22 04:12:13;;;;;;;60.80;57.80;;;;;;;;;;4987156;28;20608;-80
2024/02/22 04:14:40;;;;;;;61.70;58.60;;;;;;;;;;4987630;28;21057;-80
2024/02/22 04:17:07;;;;;;;58.53;55.63;;;;;;;;;;4987756;28;20942;-81
2024/02/22 04:19:34;;;;;;;59.33;56.40;;;;;;;;;;4988735;28;20555;-80
2024/02/22 04:22:01;;;;;;;57.20;54.30;;;;;;;;;;4991674;28;20485;-81
2024/02/22 04:24:28;;;;;;;57.67;54.87;;;;;;;;;;4988742;28;21005;-81
2024/02/22 04:26:56;;;;;;;57.60;54.60;;;;;;;;;;4996860;28;20552;-79
2024/02/22 04:29:23;;;;;;;53.90;51.10;;;;;;;;;;4989820;28;20464;-80
2024/02/22 04:31:50;;;;;;;59.77;56.77;;;;;;;;;;4986091;28;20516;-81
2024/02/22 04:34:18;;;;;;;59.90;56.90;;;;;;;;;;4991675;28;20960;-80
2024/02/22 04:36:44;;;;;;;60.70;57.60;;;;;;;;;;4986601;28;20454;-79
2024/02/22 04:39:13;;;;;;;59.33;56.33;;;;;;;;;;4987226;28;20528;-80
2024/02/22 04:41:41;;;;;;;57.30;54.30;;;;;;;;;;4990809;28;20432;-80
2024/02/22 04:44:09;;;;;;;59.63;56.53;;;;;;;;;;4987803;28;20568;-80
2024/02/22 04:46:36;;;;;;;57.20;54.20;;;;;;;;;;4984825;28;20458;-80
2024/02/22 04:49:04;;;;;;;57.80;54.90;;;;;;;;;;4993226;28;20478;-80
2024/02/22 04:51:32;;;;;;;54.43;51.57;;;;;;;;;;4990952;28;20531;-81
2024/02/22 04:53:59;;;;;;;55.77;52.93;;;;;;;;;;4991840;28;20458;-80
2024/02/22 04:56:28;;;;;;;54.80;52.00;;;;;;;;;;4990824;28;20532;-81
2024/02/22 04:58:55;;;;;;;55.20;52.30;;;;;;;;;;4983117;28;20474;-81
2024/02/22 05:01:23;;;;;;;80.57;74.50;;;;;;;;;;4988081;28;20469;-80
2024/02/22 05:03:50;;;;;;;60.13;56.93;;;;;;;;;;4984105;28;20517;-81
2024/02/22 05:06:17;;;;;;;75.33;70.23;;;;;;;;;;4985945;28;20457;-80
2024/02/22 05:08:44;;;;;;;58.03;54.83;;;;;;;;;;4983254;28;20482;-80
2024/02/22 05:11:12;;;;;;;61.43;58.13;;;;;;;;;;4995392;28;20498;-80
2024/02/22 05:13:39;;;;;;;62.60;59.30;;;;;;;;;;4993400;28;21208;-80
2024/02/22 05:16:06;;;;;;;65.17;61.57;;;;;;;;;;4982521;28;20458;-81
2024/02/22 05:18:35;;;;;;;62.73;59.33;;;;;;;;;;4987191;28;20480;-80
2024/02/22 05:21:03;;;;;;;60.90;57.60;;;;;;;;;;4991416;28;20496;-80
2024/02/22 05:23:30;;;;;;;60.10;56.80;;;;;;;;;;4989914;28;20551;-80
2024/02/22 05:25:57;;;;;;;61.93;58.73;;;;;;;;;;4995454;28;20440;-80
2024/02/22 05:28:25;;;;;;;66.00;62.50;;;;;;;;;;4983253;28;20448;-78
2024/02/22 05:30:52;;;;;;;62.53;59.13;;;;;;;;;;4991445;28;20477;-80
2024/02/22 05:33:19;;;;;;;87.10;81.67;;;;;;;;;;4989800;28;20437;-80
2024/02/22 05:35:47;;;;;;;64.13;60.63;;;;;;;;;;4983761;28;20455;-80
2024/02/22 05:38:14;;;;;;;66.67;63.17;;;;;;;;;;4986081;28;20448;-80
2024/02/22 05:40:42;;;;;;;60.87;57.67;;;;;;;;;;5000614;28;20465;-81
2024/02/22 05:43:09;;;;;;;60.53;57.33;;;;;;;;;;4988908;28;20504;-80
2024/02/22 05:45:42;;;;;;;63.80;60.40;;;;;;;;;;4988470;28;20453;-81
2024/02/22 05:48:09;;;;;;;57.60;54.60;;;;;;;;;;4983596;28;20448;-80
2024/02/22 05:50:36;;;;;;;58.47;55.30;;;;;;;;;;4987556;28;20907;-80
2024/02/22 05:53:05;;;;;;;59.60;56.40;;;;;;;;;;4986781;28;20428;-80
2024/02/22 05:55:32;;;;;;;58.63;55.53;;;;;;;;;;4986971;28;20458;-79
2024/02/22 05:57:59;;;;;;;60.47;57.17;;;;;;;;;;4986608;28;20473;-80
2024/02/22 06:00:26;;;;;;;63.70;60.20;;;;;;;;;;4987265;28;20424;-80
2024/02/22 06:02:53;;;;;;;61.53;58.20;;;;;;;;;;4985604;28;20457;-81
2024/02/22 06:05:20;;;;;;;58.20;55.07;;;;;;;;;;4983019;28;20882;-81
2024/02/22 06:07:47;;;;;;;59.67;56.47;;;;;;;;;;4985457;28;20463;-79
2024/02/22 06:10:15;;;;;;;61.73;58.33;;;;;;;;;;4987914;28;20459;-80
2024/02/22 06:12:44;;;;;;;61.10;57.80;;;;;;;;;;4986401;28;20432;-81
2024/02/22 06:15:11;;;;;;;61.37;57.97;;;;;;;;;;4984150;28;20459;-80
2024/02/22 06:17:38;;;;;;;64.43;60.83;;;;;;;;;;4990475;28;20450;-80
2024/02/22 06:20:06;;;;;;;63.70;60.20;;;;;;;;;;4989625;28;20870;-79
2024/02/22 06:22:33;;;;;;;62.00;58.63;;;;;;;;;;4986306;28;20468;-80
2024/02/22 06:25:00;;;;;;;60.97;57.57;;;;;;;;;;4988995;28;20425;-81
2024/02/22 06:27:28;;;;;;;62.60;59.30;;;;;;;;;;4989921;28;20432;-80
2024/02/22 06:29:55;;;;;;;64.80;61.40;;;;;;;;;;4985893;28;20454;-80
2024/02/22 06:32:23;;;;;;;61.77;58.27;;;;;;;;;;4985580;28;20966;-80
2024/02/22 06:34:51;;;;;;;62.10;58.27;;;;;;;;;;4985561;28;20454;-80
2024/02/22 06:37:19;;;;;;;62.40;59.00;;;;;;;;;;4988687;28;20515;-80
2024/02/22 06:39:46;;;;;;;62.93;59.40;;;;;;;;;;4985982;28;20483;-80
2024/02/22 06:42:13;;;;;;;62.10;58.70;;;;;;;;;;4985768;28;20452;-79
2024/02/22 06:44:43;;;;;;;59.00;55.80;;;;;;;;;;4985842;28;20747;-80
2024/02/22 06:47:09;;;;;;;58.73;55.53;;;;;;;;;;4998475;28;20491;-80
2024/02/22 06:49:36;;;;;;;58.90;55.77;;;;;;;;;;4985902;28;20524;-80
2024/02/22 06:52:04;;;;;;;58.20;55.10;;;;;;;;;;4985212;28;20478;-80
2024/02/22 06:54:31;;;;;;;56.50;53.60;;;;;;;;;;4985549;28;20775;-80
2024/02/22 06:56:58;;;;;;;54.00;51.20;;;;;;;;;;4984948;28;20454;-80
2024/02/22 06:59:25;;;;;;;57.30;54.27;;;;;;;;;;4984733;28;20448;-80
2024/02/22 07:01:53;;;;;;;54.77;51.97;;;;;;;;;;4997721;28;20438;-80
2024/02/22 07:04:20;;;;;;;58.50;55.50;;;;;;;;;;4994370;28;20455;-80
2024/02/22 07:06:48;;;;;;;60.40;57.30;;;;;;;;;;4984716;28;20433;-81
2024/02/22 07:09:15;;;;;;;57.23;54.13;;;;;;;;;;4991862;28;21324;-80
2024/02/22 07:11:42;;;;;;;59.77;56.60;;;;;;;;;;4989156;28;20535;-80
2024/02/22 07:14:09;;;;;;;53.17;50.27;;;;;;;;;;4989097;28;20521;-80
2024/02/22 07:16:36;;;;;;;53.00;50.20;;;;;;;;;;4987463;28;20521;-81
2024/02/22 07:19:04;;;;;;;55.93;52.90;;;;;;;;;;5000977;28;20969;-81
2024/02/22 07:21:35;;;;;;;55.13;52.17;;;;;;;;;;4989531;28;21227;-81
2024/02/22 07:24:03;;;;;;;52.87;49.77;;;;;;;;;;4983405;28;20485;-80
2024/02/22 07:26:31;;;;;;;50.87;48.07;;;;;;;;;;4982742;28;20477;-81
2024/02/22 07:28:58;;;;;;;50.17;47.37;;;;;;;;;;4983244;28;20549;-80
2024/02/22 07:31:25;;;;;;;52.40;49.50;;;;;;;;;;4983485;28;21029;-80
2024/02/22 07:33:52;;;;;;;52.23;49.33;;;;;;;;;;4983302;28;20438;-80
2024/02/22 07:36:21;;;;;;;54.40;51.50;;;;;;;;;;4982489;28;20498;-81
2024/02/22 07:38:48;;;;;;;57.50;54.40;;;;;;;;;;4992632;28;20492;-82
2024/02/22 07:41:16;;;;;;;58.73;55.60;;;;;;;;;;5002200;28;20453;-80
2024/02/22 07:43:43;;;;;;;59.60;56.30;;;;;;;;;;4999266;28;20493;-80
2024/02/22 07:46:11;;;;;;;59.20;55.90;;;;;;;;;;4986595;28;20440;-89
2024/02/22 07:48:38;;;;;;;61.10;57.97;;;;;;;;;;4999388;28;20464;-80
2024/02/22 07:51:05;;;;;;;63.83;60.43;;;;;;;;;;4984163;28;20446;-80
2024/02/22 07:53:34;;;;;;;67.40;63.90;;;;;;;;;;4984107;28;20545;-82
2024/02/22 07:56:02;;;;;;;60.17;56.97;;;;;;;;;;4983796;28;20454;-80
2024/02/22 07:58:29;;;;;;;65.40;61.97;;;;;;;;;;4982708;28;20482;-86
2024/02/22 08:00:58;;;;;;;64.40;61.00;;;;;;;;;;5000331;28;20455;-86
2024/02/22 08:03:25;;;;;;;58.37;55.17;;;;;;;;;;5011100;28;20890;-81
2024/02/22 08:05:53;;;;;;;56.13;53.00;;;;;;;;;;5002143;28;20446;-78
2024/02/22 08:08:21;;;;;;;56.50;53.40;;;;;;;;;;5003260;28;20500;-86
2024/02/22 08:10:49;;;;;;;52.77;49.77;;;;;;;;;;5002978;28;20464;-85
2024/02/22 08:13:17;;;;;;;53.27;50.30;;;;;;;;;;5003401;28;20456;-85
2024/02/22 08:15:44;;;;;;;55.70;52.63;;;;;;;;;;4994711;28;20517;-82
2024/02/22 08:18:11;;;;;;;52.40;49.50;;;;;;;;;;4991570;28;20489;-86
2024/02/22 08:20:38;;;;;;;52.17;49.30;;;;;;;;;;4999962;28;20511;-79
2024/02/22 08:23:08;;;;;;;49.93;47.30;;;;;;;;;;4983104;28;20452;-80
2024/02/22 08:25:35;;;;;;;53.47;50.47;;;;;;;;;;4980864;28;20492;-79
2024/02/22 08:28:03;;;;;;;61.13;57.83;;;;;;;;;;4979922;28;20934;-81
2024/02/22 08:30:30;;;;;;;63.93;60.53;;;;;;;;;;4994038;28;20458;-79
2024/02/22 08:32:57;;;;;;;63.77;60.37;;;;;;;;;;4995666;28;20457;-77
2024/02/22 08:35:24;;;;;;;63.37;60.07;;;;;;;;;;4986817;28;20446;-81
2024/02/22 08:37:51;;;;;;;66.03;62.53;;;;;;;;;;4981519;28;20543;-82
2024/02/22 08:40:19;;;;;;;67.17;63.67;;;;;;;;;;4995362;28;20873;-82
2024/02/22 08:42:46;;;;;;;67.57;64.10;;;;;;;;;;4995380;28;20462;-75
2024/02/22 08:45:16;;;;;;;64.40;61.00;;;;;;;;;;4989926;28;20547;-77
2024/02/22 08:47:43;;;;;;;60.07;56.97;;;;;;;;;;4973438;28;20489;-76
2024/02/22 08:50:12;;;;;;;58.93;55.73;;;;;;;;;;4972855;28;20450;-77
2024/02/22 08:52:41;;;;;;;54.80;51.90;;;;;;;;;;4972239;28;20469;-75
2024/02/22 08:55:08;;;;;;;59.47;56.17;;;;;;;;;;4972195;28;20508;-76
2024/02/22 08:57:35;;;;;;;59.37;55.77;;;;;;;;;;4971264;28;20474;-76
2024/02/22 09:00:03;;;;;;;54.70;51.80;;;;;;;;;;4972007;28;20446;-76
2024/02/22 09:02:31;;;;;;;53.80;50.93;;;;;;;;;;4972089;28;20450;-76
2024/02/22 09:04:59;;;;;;;53.50;50.60;;;;;;;;;;4971956;28;20481;-76
2024/02/22 09:07:26;;;;;;;55.57;52.70;;;;;;;;;;4971038;28;20949;-75
2024/02/22 09:09:53;;;;;;;53.00;50.20;;;;;;;;;;4972072;28;20458;-75
2024/02/22 09:12:20;;;;;;;57.17;54.00;;;;;;;;;;4971523;28;20453;-76
2024/02/22 09:14:47;;;;;;;56.00;52.60;;;;;;;;;;4971334;28;20894;-76
2024/02/22 09:17:14;;;;;;;50.53;47.77;;;;;;;;;;4971009;28;20572;-76
2024/02/22 09:19:43;;;;;;;49.63;46.83;;;;;;;;;;4971464;28;20466;-75
2024/02/22 09:22:12;;;;;;;51.00;48.30;;;;;;;;;;4971655;28;20541;-78
2024/02/22 09:24:41;;;;;;;56.50;53.50;;;;;;;;;;4978343;28;20869;-74
2024/02/22 09:27:08;;;;;;;52.63;49.93;;;;;;;;;;4980441;28;21298;-74
2024/02/22 09:29:36;;;;;;;50.77;48.07;;;;;;;;;;4980029;28;20881;-75
2024/02/22 09:32:03;;;;;;;54.37;51.57;;;;;;;;;;4976551;28;20458;-75
2024/02/22 09:34:30;;;;;;;52.97;50.27;;;;;;;;;;4989017;28;20479;-77
2024/02/22 09:36:58;;;;;;;52.40;49.80;;;;;;;;;;4988984;28;20941;-77
2024/02/22 09:39:25;;;;;;;52.33;49.80;;;;;;;;;;4990477;28;20485;-77
2024/02/22 09:41:53;;;;;;;52.07;49.57;;;;;;;;;;4991118;28;20441;-77
2024/02/22 09:44:20;;;;;;;50.27;47.77;;;;;;;;;;4990637;28;20481;-76
2024/02/22 09:46:53;;;;;;;47.20;44.93;;;;;;;;;;4990248;28;21277;-78
2024/02/22 09:49:20;;;;;;;44.30;42.10;;;;;;;;;;4990774;28;20528;-77
2024/02/22 09:51:49;;;;;;;45.17;42.97;;;;;;;;;;4990848;28;20453;-77
2024/02/22 09:54:17;;;;;;;46.13;43.93;;;;;;;;;;4990574;28;20933;-78
2024/02/22 09:56:45;;;;;;;44.13;42.03;;;;;;;;;;4990492;28;20449;-77
2024/02/22 09:59:13;;;;;;;44.43;41.83;;;;;;;;;;4993184;28;20559;-77
2024/02/22 10:01:41;;;;;;;42.87;40.87;;;;;;;;;;4995012;28;20453;-78
2024/02/22 10:04:11;;;;;;;42.63;40.63;;;;;;;;;;4994899;28;20459;-77
2024/02/22 10:06:38;;;;;;;43.93;41.83;;;;;;;;;;4994281;28;20468;-77
2024/02/22 10:09:06;;;;;;;46.07;43.97;;;;;;;;;;4994853;28;20469;-77
2024/02/22 10:11:34;;;;;;;45.80;43.70;;;;;;;;;;4995063;28;20448;-74
2024/02/22 10:14:02;;;;;;;43.30;41.30;;;;;;;;;;4994711;28;20450;-75
2024/02/22 10:16:29;;;;;;;42.70;40.70;;;;;;;;;;4993885;28;20452;-74
2024/02/22 10:18:59;;;;;;;39.17;37.37;;;;;;;;;;4993869;28;21063;-74
2024/02/22 10:21:28;;;;;;;38.93;37.13;;;;;;;;;;4994543;28;20434;-74
2024/02/22 10:23:55;;;;;;;34.80;33.20;;;;;;;;;;4992929;28;21116;-73
2024/02/22 10:26:22;;;;;;;32.50;30.93;;;;;;;;;;4990797;28;20504;-73
2024/02/22 10:28:55;;;;;;;31.60;30.20;;;;;;;;;;4993470;28;20485;-73
2024/02/22 10:31:22;;;;;;;32.60;31.20;;;;;;;;;;4974486;28;20460;-74
2024/02/22 10:33:49;;;;;;;29.50;28.20;;;;;;;;;;4977652;28;20539;-74
2024/02/22 10:36:17;;;;;;;27.70;26.50;;;;;;;;;;4993158;28;20440;-73
2024/02/22 10:38:45;;;;;;;27.60;26.40;;;;;;;;;;4987062;28;20481;-73
2024/02/22 10:41:12;;;;;;;28.63;27.43;;;;;;;;;;4978919;28;20428;-74
2024/02/22 10:43:40;;;;;;;29.37;28.10;;;;;;;;;;4993853;28;20544;-73
2024/02/22 10:46:09;;;;;;;27.70;26.30;;;;;;;;;;4978563;28;20851;-73
2024/02/22 10:48:37;;;;;;;28.20;27.00;;;;;;;;;;4987916;28;20989;-74
2024/02/22 10:51:05;;;;;;;25.37;24.37;;;;;;;;;;4976755;28;20454;-72
2024/02/22 10:53:35;;;;;;;26.17;24.63;;;;;;;;;;4974253;28;20453;-73
2024/02/22 10:56:02;;;;;;;25.43;24.33;;;;;;;;;;4985154;28;20453;-76
2024/02/22 10:58:32;;;;;;;24.87;23.87;;;;;;;;;;4973622;28;20986;-75
2024/02/22 11:01:00;;;;;;;23.30;22.30;;;;;;;;;;4974765;28;20454;-71
2024/02/22 11:03:30;;;;;;;22.37;21.47;;;;;;;;;;4973589;28;20947;-75
2024/02/22 11:05:58;;;;;;;22.20;21.20;;;;;;;;;;4988805;28;20497;-75
2024/02/22 11:08:28;;;;;;;21.60;20.70;;;;;;;;;;4992661;28;20481;-75
2024/02/22 11:11:06;;;;;;;22.00;21.10;;;;;;;;;;4992092;28;20432;-76
2024/02/22 11:13:33;;;;;;;22.53;21.63;;;;;;;;;;4993513;28;20455;-75
2024/02/22 11:16:00;;;;;;;23.43;22.43;;;;;;;;;;4992960;28;20949;-75
2024/02/22 11:18:29;;;;;;;23.23;22.23;;;;;;;;;;4992911;28;20483;-74
2024/02/22 11:20:55;;;;;;;23.47;22.47;;;;;;;;;;4993441;28;20996;-75
2024/02/22 11:23:23;;;;;;;24.03;22.07;;;;;;;;;;4993201;28;20457;-75
2024/02/22 11:25:50;;;;;;;20.33;19.53;;;;;;;;;;4992943;28;20488;-78
2024/02/22 11:28:17;;;;;;;22.43;21.53;;;;;;;;;;4992288;28;20580;-75
2024/02/22 11:30:45;;;;;;;22.00;21.10;;;;;;;;;;4991890;28;20953;-75
2024/02/22 11:33:12;;;;;;;22.60;21.70;;;;;;;;;;4987869;28;20520;-76
2024/02/22 11:35:41;;;;;;;22.83;21.93;;;;;;;;;;4973482;28;20462;-75
2024/02/22 11:38:08;;;;;;;22.23;21.23;;;;;;;;;;4972347;28;20476;-74
2024/02/22 11:40:35;;;;;;;21.73;20.83;;;;;;;;;;4973426;28;20490;-75
2024/02/22 11:43:03;;;;;;;21.13;20.23;;;;;;;;;;4988053;28;20488;-75
2024/02/22 11:45:30;;;;;;;21.10;20.23;;;;;;;;;;4986795;28;20489;-75
2024/02/22 11:47:58;;;;;;;21.47;20.53;;;;;;;;;;4975288;28;20478;-75
2024/02/22 11:50:25;;;;;;;20.77;19.90;;;;;;;;;;4991061;28;20880;-75
2024/02/22 11:52:53;;;;;;;19.07;18.27;;;;;;;;;;4992359;28;20461;-75
2024/02/22 11:55:20;;;;;;;18.73;17.93;;;;;;;;;;4992374;28;20427;-75
2024/02/22 11:57:47;;;;;;;18.27;17.57;;;;;;;;;;4991151;28;20668;-74
2024/02/22 12:00:14;;;;;;;17.70;17.00;;;;;;;;;;4982980;28;20462;-76
2024/02/22 12:02:41;;;;;;;18.40;17.70;;;;;;;;;;4972986;28;20480;-74
2024/02/22 12:05:10;;;;;;;18.10;17.40;;;;;;;;;;4990984;28;20492;-74
2024/02/22 12:07:37;;;;;;;17.83;16.73;;;;;;;;;;4976322;28;20461;-73
2024/02/22 12:10:07;;;;;;;17.80;17.10;;;;;;;;;;4983234;28;20461;-73
2024/02/22 12:12:34;;;;;;;17.80;17.10;;;;;;;;;;4973098;28;20462;-72
2024/02/22 12:15:01;;;;;;;17.70;17.00;;;;;;;;;;4972163;28;20517;-74
2024/02/22 12:17:29;;;;;;;18.40;17.60;;;;;;;;;;4985285;28;20436;-72
2024/02/22 12:19:56;;;;;;;17.57;16.87;;;;;;;;;;4977666;28;20453;-70
2024/02/22 12:22:23;;;;;;;17.33;16.63;;;;;;;;;;4991419;28;20536;-71
2024/02/22 12:24:50;;;;;;;17.63;16.83;;;;;;;;;;4990889;28;20489;-71
2024/02/22 12:27:19;;;;;;;16.73;15.97;;;;;;;;;;4978191;28;20513;-72
2024/02/22 12:29:49;;;;;;;16.77;16.07;;;;;;;;;;4974700;28;20539;-71
2024/02/22 12:32:16;;;;;;;17.30;16.60;;;;;;;;;;4991637;28;20451;-72
2024/02/22 12:34:43;;;;;;;16.70;16.00;;;;;;;;;;4984247;28;20461;-71
2024/02/22 12:37:10;;;;;;;16.90;16.20;;;;;;;;;;4977919;28;20454;-72
2024/02/22 12:39:38;;;;;;;16.57;15.87;;;;;;;;;;4979593;28;20486;-72
2024/02/22 12:42:06;;;;;;;17.20;16.50;;;;;;;;;;4972215;28;20489;-72
2024/02/22 12:44:34;;;;;;;17.87;17.17;;;;;;;;;;4983078;28;20914;-71
2024/02/22 12:47:01;;;;;;;17.53;16.83;;;;;;;;;;4989196;28;20449;-71
2024/02/22 12:49:28;;;;;;;17.73;17.03;;;;;;;;;;4991218;28;20524;-71
2024/02/22 12:51:56;;;;;;;18.10;17.30;;;;;;;;;;4974770;28;20550;-72
2024/02/22 12:54:24;;;;;;;18.93;18.13;;;;;;;;;;4991386;28;20456;-72
2024/02/22 12:56:51;;;;;;;19.50;18.60;;;;;;;;;;4989660;28;20472;-72
2024/02/22 12:59:19;;;;;;;17.90;17.10;;;;;;;;;;4982034;28;20476;-72
2024/02/22 13:01:47;;;;;;;19.77;18.97;;;;;;;;;;4975123;28;20459;-72
2024/02/22 13:04:15;;;;;;;18.33;17.37;;;;;;;;;;4977926;28;21058;-72
2024/02/22 13:06:42;;;;;;;18.07;17.27;;;;;;;;;;4979652;28;20515;-72
2024/02/22 13:09:09;;;;;;;18.43;17.50;;;;;;;;;;4975784;28;20474;-72
2024/02/22 13:11:36;;;;;;;17.43;16.73;;;;;;;;;;4988045;28;20484;-71
2024/02/22 13:14:03;;;;;;;18.10;17.40;;;;;;;;;;4980577;28;20458;-72
2024/02/22 13:16:30;;;;;;;17.73;17.03;;;;;;;;;;4979621;28;20513;-72
2024/02/22 13:18:59;;;;;;;16.20;15.60;;;;;;;;;;4987006;28;20554;-80
2024/02/22 13:21:26;;;;;;;17.07;16.37;;;;;;;;;;5013644;28;20808;-80
2024/02/22 13:23:53;;;;;;;17.17;16.47;;;;;;;;;;5012942;28;20837;-78
2024/02/22 13:26:20;;;;;;;16.27;15.57;;;;;;;;;;4990886;28;20497;-75
2024/02/22 13:28:49;;;;;;;17.77;17.03;;;;;;;;;;4990412;28;20519;-75
2024/02/22 13:31:16;;;;;;;17.73;17.03;;;;;;;;;;4990448;28;20457;-74
2024/02/22 13:33:45;;;;;;;17.40;16.60;;;;;;;;;;4985423;28;20980;-76
2024/02/22 13:36:13;;;;;;;17.33;16.63;;;;;;;;;;4986196;28;20542;-76
2024/02/22 13:38:41;;;;;;;16.57;15.87;;;;;;;;;;4979570;28;20473;-76
2024/02/22 13:41:08;;;;;;;16.50;15.80;;;;;;;;;;4990335;28;20450;-74
2024/02/22 13:43:36;;;;;;;16.23;15.53;;;;;;;;;;4984424;28;20457;-73
2024/02/22 13:46:03;;;;;;;15.87;15.27;;;;;;;;;;4988243;28;20933;-75
2024/02/22 13:48:35;;;;;;;15.87;15.20;;;;;;;;;;4972648;28;20482;-74
2024/02/22 13:51:03;;;;;;;16.77;16.03;;;;;;;;;;4984395;28;20462;-75
2024/02/22 13:53:31;;;;;;;16.10;15.40;;;;;;;;;;4976289;28;20901;-75
2024/02/22 13:55:58;;;;;;;16.73;16.03;;;;;;;;;;4984199;28;20469;-80
2024/02/22 13:58:25;;;;;;;16.00;15.40;;;;;;;;;;4990010;28;20485;-75
2024/02/22 14:00:52;;;;;;;16.60;16.00;;;;;;;;;;4990566;28;20502;-76
2024/02/22 14:03:19;;;;;;;16.50;15.80;;;;;;;;;;4990698;28;20845;-74
2024/02/22 14:05:46;;;;;;;16.73;16.13;;;;;;;;;;4989701;28;20501;-74
2024/02/22 14:08:13;;;;;;;16.90;16.20;;;;;;;;;;4983198;28;21012;-75
2024/02/22 14:10:42;;;;;;;17.10;16.40;;;;;;;;;;4990908;28;20437;-75
2024/02/22 14:13:10;;;;;;;16.40;15.80;;;;;;;;;;4990167;28;20942;-75
2024/02/22 14:15:38;;;;;;;15.70;15.10;;;;;;;;;;4988015;28;20589;-76
2024/02/22 14:18:06;;;;;;;16.07;15.47;;;;;;;;;;4976420;28;20541;-75